createdAt,value
2019-01-26T00:18:20.916Z,29.60
2019-01-26T00:48:46.791Z,29.60
2019-01-26T00:51:19.360Z,29.20
2019-01-26T00:53:51.926Z,29.30
2019-01-26T00:56:24.838Z,29.20
2019-01-26T01:31:53.181Z,29.20
2019-01-26T01:34:25.702Z,29.30
2019-01-26T01:39:30.112Z,29.30
2019-01-26T02:25:00.883Z,29.10
2019-01-26T02:27:33.395Z,28.90
2019-01-26T02:30:05.939Z,29.10
2019-01-26T02:32:38.436Z,29.00
2019-01-26T02:35:10.960Z,29.00
2019-01-26T03:38:36.585Z,29.20
2019-01-26T04:36:47.385Z,29.70
2019-01-26T04:41:51.442Z,30.10
2019-01-26T04:44:24.086Z,29.80
2019-01-26T04:46:56.594Z,30.00
2019-01-26T05:04:42.133Z,30.10
2019-01-26T05:09:50.027Z,30.10
2019-01-26T05:12:22.561Z,30.10
2019-01-26T05:14:55.107Z,30.10
2019-01-26T05:22:33.590Z,30.00
2019-01-26T05:47:57.482Z,31.00
2019-01-26T05:53:05.289Z,31.10
2019-01-26T06:10:48.117Z,30.50
2019-01-26T06:26:06.301Z,30.00
2019-01-26T06:28:38.805Z,30.10
2019-01-26T06:56:29.944Z,29.30
2019-01-26T07:21:48.308Z,28.90
2019-01-26T07:24:20.831Z,28.90
2019-01-26T07:29:24.972Z,29.10
2019-01-26T07:57:17.571Z,28.40
2019-01-26T08:48:03.586Z,28.20
2019-01-26T09:33:51.920Z,28.00
2019-01-26T09:36:24.725Z,28.00
2019-01-26T14:08:25.467Z,27.40
2019-01-26T14:10:58.080Z,27.30
2019-01-26T14:41:18.022Z,27.30
2019-01-26T14:48:53.582Z,27.20
2019-01-26T14:51:26.261Z,27.30
2019-01-26T15:04:05.235Z,27.30
2019-01-26T15:09:10.358Z,27.30
2019-01-26T15:29:24.357Z,27.60
2019-01-26T15:34:28.490Z,27.50
2019-01-26T15:44:36.562Z,27.50
2019-01-26T16:07:23.053Z,27.80
2019-01-26T16:12:27.199Z,27.10
2019-01-26T17:00:46.305Z,27.30
2019-01-26T17:31:12.039Z,27.10
2019-01-26T18:06:52.927Z,27.10
2019-01-26T18:09:25.435Z,27.30
2019-01-26T18:14:29.459Z,27.00
2019-01-26T18:17:01.956Z,26.80
2019-01-26T18:19:34.568Z,27.10
2019-01-26T18:22:07.060Z,27.20
2019-01-26T18:24:39.676Z,27.00
2019-01-26T18:27:12.146Z,27.20
2019-01-26T18:29:45.920Z,26.90
2019-01-26T18:32:18.421Z,27.00
2019-01-26T18:34:52.151Z,27.20
2019-01-26T18:37:25.182Z,27.10
2019-01-26T18:39:57.738Z,27.10
2019-01-26T18:42:30.239Z,26.90
2019-01-26T18:45:02.771Z,27.10
2019-01-26T18:47:35.268Z,27.10
2019-01-26T18:50:13.127Z,27.20
2019-01-26T18:52:45.669Z,27.20
2019-01-26T18:55:18.178Z,27.10
2019-01-26T18:57:50.659Z,27.10
2019-01-26T19:00:24.781Z,26.50
2019-01-26T19:02:59.374Z,26.90
2019-01-26T19:05:33.270Z,27.10
2019-01-26T19:08:05.778Z,27.20
2019-01-26T19:13:09.843Z,27.20
2019-01-26T19:15:42.342Z,26.90
2019-01-26T19:18:14.836Z,27.00
2019-01-26T19:20:47.359Z,27.40
2019-01-26T19:23:19.839Z,26.90
2019-01-26T19:25:52.365Z,27.40
2019-01-26T19:28:24.859Z,26.90
2019-01-26T19:30:57.377Z,27.30
2019-01-26T19:33:29.874Z,27.60
2019-01-26T19:36:02.408Z,27.20
2019-01-26T19:38:34.908Z,27.20
2019-01-26T19:41:07.412Z,27.10
2019-01-26T19:43:39.864Z,27.40
2019-01-26T19:46:12.432Z,27.50
2019-01-26T19:48:44.924Z,27.30
2019-01-26T19:51:17.452Z,27.30
2019-01-26T19:53:49.948Z,26.80
2019-01-26T19:56:22.455Z,27.60
2019-01-26T19:58:54.947Z,27.10
2019-01-26T20:01:27.447Z,27.40
2019-01-26T20:03:59.958Z,27.50
2019-01-26T20:06:32.513Z,27.40
2019-01-26T20:09:09.409Z,27.40
2019-01-26T20:11:41.052Z,27.30
2019-01-26T20:14:13.544Z,27.20
2019-01-26T20:16:46.151Z,27.20
2019-01-26T20:19:18.683Z,27.60
2019-01-26T20:21:51.170Z,27.20
2019-01-26T20:24:23.668Z,27.30
2019-01-26T20:26:56.221Z,27.20
2019-01-26T20:29:28.658Z,27.20
2019-01-26T20:32:01.208Z,27.40
2019-01-26T20:34:33.703Z,27.30
2019-01-26T20:37:06.241Z,27.30
2019-01-26T20:39:38.723Z,27.30
2019-01-26T20:42:11.256Z,27.90
2019-01-26T20:44:43.757Z,27.40
2019-01-26T20:47:16.267Z,27.40
2019-01-26T20:49:48.777Z,27.60
2019-01-26T20:52:21.280Z,27.30
2019-01-26T20:54:53.724Z,27.40
2019-01-26T20:57:26.247Z,27.40
2019-01-26T20:59:58.783Z,27.00
2019-01-26T21:02:31.299Z,27.40
2019-01-26T21:05:04.365Z,27.70
2019-01-26T21:10:10.906Z,27.70
2019-01-26T21:12:43.455Z,27.40
2019-01-26T21:15:15.947Z,27.40
2019-01-26T21:17:48.422Z,27.30
2019-01-26T21:20:22.367Z,27.60
2019-01-26T21:22:54.828Z,27.30
2019-01-26T21:25:27.368Z,28.10
2019-01-26T21:27:59.968Z,27.40
2019-01-26T21:33:03.985Z,27.60
2019-01-26T21:35:36.470Z,27.60
2019-01-26T21:38:08.999Z,27.50
2019-01-26T21:40:41.490Z,27.40
2019-01-26T21:45:45.607Z,27.40
2019-01-26T21:48:18.068Z,27.50
2019-01-26T21:50:50.611Z,27.60
2019-01-26T21:53:24.375Z,27.60
2019-01-26T21:55:56.872Z,27.70
2019-01-26T22:01:00.931Z,28.00
2019-01-26T22:03:33.450Z,27.60
2019-01-26T22:06:05.906Z,27.60
2019-01-26T22:08:38.510Z,27.60
2019-01-26T22:11:11.639Z,27.70
2019-01-26T22:13:44.207Z,27.70
2019-01-26T22:16:16.704Z,27.70
2019-01-26T22:18:49.206Z,27.70
2019-01-26T22:21:21.695Z,27.80
2019-01-26T22:26:25.720Z,27.70
2019-01-26T22:28:58.241Z,28.20
2019-01-26T22:31:30.728Z,27.80
2019-01-26T22:34:03.253Z,27.90
2019-01-26T22:36:35.777Z,28.00
2019-01-26T22:39:09.811Z,28.00
2019-01-26T22:41:42.349Z,27.70
2019-01-26T22:44:14.887Z,25.90
2019-01-26T22:46:47.379Z,27.80
2019-01-26T22:49:19.883Z,27.90
2019-01-26T22:51:53.403Z,27.90
2019-01-26T22:54:26.154Z,28.00
2019-01-26T22:56:59.645Z,28.10
2019-01-26T22:59:32.161Z,28.10
2019-01-26T23:02:05.721Z,27.90
2019-01-26T23:04:43.235Z,28.20
2019-01-26T23:07:23.931Z,28.10
2019-01-26T23:12:37.166Z,28.20
2019-01-26T23:15:40.016Z,27.50
2019-01-26T23:18:33.645Z,27.80
2019-01-26T23:21:14.051Z,28.30
2019-01-26T23:24:03.470Z,28.40
2019-01-26T23:29:25.608Z,28.50
2019-01-26T23:31:58.116Z,28.40
2019-01-26T23:34:30.619Z,28.60
2019-01-26T23:37:03.483Z,28.40
2019-01-26T23:39:35.975Z,28.50
2019-01-26T23:42:08.479Z,28.60
2019-01-26T23:44:41.020Z,28.60
2019-01-26T23:47:14.533Z,28.70
2019-01-26T23:49:47.068Z,28.60
2019-01-26T23:52:20.843Z,28.60
2019-01-26T23:54:54.609Z,28.60
2019-01-26T23:57:27.099Z,28.60
2019-01-26T23:59:59.580Z,28.60
